Startpagina
METAR-TAF:

METAR-TAF

Vliegvelden :

Winnipeg, Manitoba, Canada

breedte: 49-54N, lengte: 097-14W, hoogte: 239 m

Actueel weer

Dit bericht is 51 minuten geleden gemaakt, om 16:00 UTC
Wind 13 kt uit het noordoosten met uitschieters tot 22 kt
Temperatuur 16°C
Vochtigheid 51%
Druk 1019 hPa
Zicht: 24.1 km
Weinig wolken op 3800 ft
Weinig wolken op 25000 ft

METAR: CYWG 231600Z 04013G22KT 15SM FEW038 FEW250 16/06 A3008 RMK CF1CI1 CF TR CI TR SLP195 DENSITY ALT 800FT

Tijdstip: 11:51 (16:51 UTC)

Verwachting

Dit bericht is 5 uur en het 12 minuten geleden gemaakt, om 11:39 UTC
Verwachting geldig van 23 om 12 UTC tot 24 om 12 UTC
Wind 12 kt uit het noordnoordoosten
Zicht: 10 km
Weinig wolken op 9000 ft
Wijzigt naar
van 24 om 00 UTC tot 24 om 02 UTC
Wind 3 kt uit variabele richting
Van 24 om 0800 UTC
Wind 6 kt uit het zuidzuidoosten
Zicht: 10 km
Gebroken wolken op 20000 ft

TAF: CYWG 231139Z 2312/2412 02012KT P6SM FEW090 BECMG 2400/2402 VRB03KT FM240800 16006KT P6SM BKN200 RMK NXT FCST BY 231800Z

Waarnemingen en weersverwachtingen van meer dan 4000 vliegvelden (METAR en TAF).

De beschikbare stations zijn de gele en rode punten op de kaart.

Ga met uw muis naar het station om de naam te zien.

Klik dan om waarnemingen en weersverwachtingen te zien.

kaart wijzigen: klik op de groene knoppen met een zwart kruis om in te zoomen, op de groene knop met een streepje om uit te zoomen of op de groene pijlen voor aangrenzende kaarten.


METAR-TAF: